Time;durP1;ratioP1;P1;durP2;ratioP2;P2;SDS_P1;SDS_P2;PMS_P1;PMS_P2;Temp;Humidity;BMP_temperature;BMP_pressure;BME280_temperature;BME280_humidity;BME280_pressure;Samples;Min_cycle;Max_cycle;Signal;HPM_P1;HPM_P2
2023/02/19 00:01:05;;;;;;;26.50;3.42;;;;;;;-146.27;100.00;48363.75;5089397;28;20037;-72
2023/02/19 00:03:30;;;;;;;24.20;4.75;;;;;;;-146.27;100.00;48327.88;5092872;28;20027;-71
2023/02/19 00:05:55;;;;;;;12.02;3.90;;;;;;;-146.27;100.00;48349.78;5093216;28;20044;-72
2023/02/19 00:08:21;;;;;;;20.75;3.55;;;;;;;-146.27;100.00;48347.81;5093932;28;20107;-70
2023/02/19 00:10:46;;;;;;;18.27;3.92;;;;;;;-146.27;100.00;48347.81;5093023;28;20411;-72
2023/02/19 00:13:11;;;;;;;23.60;4.03;;;;;;;-146.27;100.00;48381.66;5092184;28;20368;-72
2023/02/19 00:15:37;;;;;;;21.80;3.00;;;;;;;-146.27;100.00;48343.81;5089442;28;20498;-70
2023/02/19 00:18:02;;;;;;;18.23;3.85;;;;;;;-146.27;100.00;48337.84;5089343;28;20024;-71
2023/02/19 00:20:28;;;;;;;16.80;3.17;;;;;;;-146.27;100.00;48371.69;5084545;28;20025;-71
2023/02/19 00:22:53;;;;;;;27.55;4.22;;;;;;;-146.27;100.00;48355.78;5090800;28;20414;-71
2023/02/19 00:25:18;;;;;;;14.52;3.85;;;;;;;-146.27;100.00;48383.66;5080599;28;20398;-72
2023/02/19 00:27:44;;;;;;;19.75;2.90;;;;;;;-146.27;100.00;48371.69;5084773;28;20021;-72
2023/02/19 00:30:09;;;;;;;15.27;2.65;;;;;;;-146.27;100.00;48343.81;5082329;28;20464;-72
2023/02/19 00:32:35;;;;;;;19.80;3.10;;;;;;;-146.27;100.00;48391.63;5091851;28;20527;-72
2023/02/19 00:35:00;;;;;;;12.95;3.03;;;;;;;-146.27;100.00;48353.78;5090162;28;20119;-71
2023/02/19 00:37:25;;;;;;;22.10;3.28;;;;;;;-146.27;100.00;48389.63;5091742;28;20114;-72
2023/02/19 00:39:51;;;;;;;17.90;3.38;;;;;;;-146.27;100.00;48335.84;5091518;28;20053;-71
2023/02/19 00:42:16;;;;;;;9.55;2.67;;;;;;;-146.27;100.00;48361.75;5092053;28;20031;-71
2023/02/19 00:44:41;;;;;;;20.05;2.92;;;;;;;-146.27;100.00;48335.84;5089209;28;20031;-72
2023/02/19 00:47:07;;;;;;;18.33;3.45;;;;;;;-146.27;100.00;48355.78;5089885;28;20027;-72
2023/02/19 00:49:32;;;;;;;21.70;3.15;;;;;;;-146.27;100.00;48331.88;5091582;28;20464;-71
2023/02/19 00:51:57;;;;;;;16.75;2.85;;;;;;;-146.27;100.00;48355.78;5091777;28;20097;-72
2023/02/19 00:54:23;;;;;;;20.50;4.30;;;;;;;-146.27;100.00;48351.78;5090871;28;20585;-71
2023/02/19 00:56:49;;;;;;;17.67;4.03;;;;;;;-146.27;100.00;48355.78;5092797;28;20095;-71
2023/02/19 00:59:14;;;;;;;17.88;3.88;;;;;;;-146.27;100.00;48367.72;5088023;28;20024;-70
2023/02/19 01:01:41;;;;;;;12.45;2.97;;;;;;;-146.27;100.00;48349.78;5089137;28;20020;-71
2023/02/19 01:04:06;;;;;;;17.50;3.17;;;;;;;-146.27;100.00;48351.78;5088876;28;20031;-71
2023/02/19 01:06:33;;;;;;;11.90;2.67;;;;;;;-146.27;100.00;48345.81;5092084;28;20377;-73
2023/02/19 01:08:58;;;;;;;16.20;2.83;;;;;;;-146.27;100.00;48325.91;5081217;28;20028;-72
2023/02/19 01:11:24;;;;;;;9.10;1.92;;;;;;;-146.27;100.00;48355.78;5088726;28;20085;-71
2023/02/19 01:13:49;;;;;;;18.52;2.47;;;;;;;-146.27;100.00;48363.75;5092825;28;19950;-71
2023/02/19 01:16:17;;;;;;;13.43;2.65;;;;;;;-146.27;100.00;48353.78;5082848;28;20024;-70
2023/02/19 01:18:44;;;;;;;17.52;3.13;;;;;;;-146.27;100.00;48363.75;5085041;28;20024;-72
2023/02/19 01:21:22;;;;;;;11.25;2.53;;;;;;;-146.27;100.00;48317.94;5090174;28;20083;-72
2023/02/19 01:23:49;;;;;;;14.63;2.42;;;;;;;-146.27;100.00;48389.63;5085854;28;20039;-71
2023/02/19 01:26:17;;;;;;;11.55;2.70;;;;;;;-146.27;100.00;48335.84;5081588;28;20106;-71
2023/02/19 01:28:43;;;;;;;15.55;3.33;;;;;;;-146.27;100.00;48349.78;5091762;28;20066;-72
2023/02/19 01:31:13;;;;;;;12.57;3.08;;;;;;;-146.27;100.00;48321.91;5085466;28;20098;-71
2023/02/19 01:33:39;;;;;;;14.30;2.92;;;;;;;-146.27;100.00;48375.69;5092064;28;20108;-70
2023/02/19 01:36:06;;;;;;;18.15;3.63;;;;;;;-146.27;100.00;48343.81;5087744;28;20459;-71
2023/02/19 01:38:31;;;;;;;12.88;3.50;;;;;;;-146.27;100.00;48359.75;5082337;28;20020;-71
2023/02/19 01:40:59;;;;;;;17.45;3.15;;;;;;;-146.27;100.00;48327.88;5088869;28;20084;-70
2023/02/19 01:43:25;;;;;;;10.93;2.33;;;;;;;-146.27;100.00;48325.91;5107849;28;20051;-72
2023/02/19 01:45:51;;;;;;;10.93;2.70;;;;;;;-146.27;100.00;48361.75;5089027;28;20055;-71
2023/02/19 01:48:21;;;;;;;12.68;2.55;;;;;;;-146.27;100.00;48335.84;5089451;28;20031;-71
2023/02/19 01:50:51;;;;;;;26.02;3.67;;;;;;;-146.27;100.00;48331.88;5090606;28;20059;-72
2023/02/19 01:53:22;;;;;;;18.67;3.78;;;;;;;-146.27;100.00;48335.84;5091812;28;20016;-71
2023/02/19 01:55:54;;;;;;;27.60;3.38;;;;;;;-146.27;100.00;48339.84;5091461;28;20485;-70
2023/02/19 01:58:19;;;;;;;15.27;3.13;;;;;;;-146.27;100.00;48371.69;5087256;28;20032;-71
2023/02/19 02:00:45;;;;;;;23.17;3.90;;;;;;;-146.27;100.00;48351.78;5084157;28;20051;-71
2023/02/19 02:03:11;;;;;;;15.27;3.20;;;;;;;-146.27;100.00;48347.81;5080767;28;20008;-71
2023/02/19 02:05:54;;;;;;;19.83;3.03;;;;;;;-146.27;100.00;48343.81;5084727;28;20051;-71
2023/02/19 02:11:04;;;;;;;15.10;2.50;;;;;;;-146.27;100.00;48359.75;5083441;28;20035;-71
2023/02/19 02:13:32;;;;;;;16.55;3.13;;;;;;;-146.27;100.00;48323.91;5084558;28;20434;-71
2023/02/19 02:16:02;;;;;;;11.23;2.78;;;;;;;-146.27;100.00;48335.84;5082938;28;20032;-71
2023/02/19 02:18:39;;;;;;;20.73;3.75;;;;;;;-146.27;100.00;48351.78;5084403;28;20069;-71
2023/02/19 02:21:11;;;;;;;13.73;2.60;;;;;;;-146.27;100.00;48339.84;5088268;28;20103;-72
2023/02/19 02:23:58;;;;;;;18.25;3.15;;;;;;;-146.27;100.00;48321.91;5086759;28;20669;-71
2023/02/19 02:26:49;;;;;;;14.07;2.10;;;;;;;-146.27;100.00;48365.72;5087023;28;20440;-71
2023/02/19 02:29:48;;;;;;;14.93;2.53;;;;;;;-146.27;100.00;48335.84;5080748;28;20040;-72
2023/02/19 02:32:25;;;;;;;20.70;3.25;;;;;;;-146.27;100.00;48371.69;5084766;28;20628;-70
2023/02/19 02:34:58;;;;;;;20.05;2.90;;;;;;;-146.27;100.00;48353.78;5090628;28;20059;-71
2023/02/19 02:37:27;;;;;;;22.63;3.60;;;;;;;-146.27;100.00;48327.88;5089768;28;20073;-71
2023/02/19 02:39:53;;;;;;;20.15;3.28;;;;;;;-146.27;100.00;48331.88;5083442;28;20384;-71
2023/02/19 02:42:28;;;;;;;17.05;2.88;;;;;;;-146.27;100.00;48367.72;5087623;28;20020;-71
2023/02/19 02:47:54;;;;;;;21.45;3.00;;;;;;;-146.27;100.00;48375.69;5089734;28;20501;-72
2023/02/19 02:50:23;;;;;;;14.43;2.97;;;;;;;-146.27;100.00;48381.66;5081858;28;20036;-71
2023/02/19 02:55:46;;;;;;;19.02;3.35;;;;;;;-146.27;100.00;48399.59;5088114;28;20523;-72
2023/02/19 02:58:13;;;;;;;20.88;3.30;;;;;;;-146.27;100.00;48393.63;5072756;28;20115;-72
2023/02/19 03:03:31;;;;;;;16.60;3.28;;;;;;;-146.27;100.00;48391.63;5084616;28;20085;-70
2023/02/19 03:06:03;;;;;;;14.75;3.65;;;;;;;-146.27;100.00;48355.78;5089014;28;20502;-71
2023/02/19 03:08:34;;;;;;;16.05;3.45;;;;;;;-146.27;100.00;48375.69;5090176;28;20133;-71
2023/02/19 03:19:29;;;;;;;19.27;2.97;;;;;;;-146.27;100.00;48363.75;5091111;28;20043;-71
2023/02/19 03:22:08;;;;;;;18.52;3.13;;;;;;;-146.27;100.00;48363.75;5087357;28;20024;-71
2023/02/19 03:27:27;;;;;;;20.73;3.72;;;;;;;-146.27;100.00;48353.78;5084595;28;20042;-72
2023/02/19 03:29:56;;;;;;;17.83;3.67;;;;;;;-146.27;100.00;48349.78;5089170;28;20152;-71
2023/02/19 03:32:50;;;;;;;14.88;2.95;;;;;;;-146.27;100.00;48397.59;5091702;28;20028;-72
2023/02/19 03:35:27;;;;;;;;;;;;;;;-146.27;100.00;48355.78;5092172;28;20115;-72
2023/02/19 03:38:12;;;;;;;18.52;2.70;;;;;;;-146.27;100.00;48355.78;5093201;28;19912;-72
2023/02/19 03:40:49;;;;;;;18.77;3.95;;;;;;;-146.27;100.00;48391.63;5093792;28;20054;-72
2023/02/19 03:43:46;;;;;;;18.33;3.08;;;;;;;-146.27;100.00;48353.78;5075928;28;20028;-73
2023/02/19 03:46:16;;;;;;;24.60;3.85;;;;;;;-146.27;100.00;48363.75;5070311;28;20427;-73
2023/02/19 03:48:52;;;;;;;29.25;4.07;;;;;;;-146.27;100.00;48337.84;5092674;28;20024;-71
2023/02/19 03:51:29;;;;;;;14.70;2.63;;;;;;;-146.27;100.00;48347.81;5087267;28;20020;-72
2023/02/19 03:54:10;;;;;;;19.13;3.75;;;;;;;-146.27;100.00;48339.84;5079483;28;20025;-72
2023/02/19 03:56:48;;;;;;;18.30;2.97;;;;;;;-146.27;100.00;48391.63;5091362;28;20054;-71
2023/02/19 03:59:31;;;;;;;13.48;2.85;;;;;;;-146.27;100.00;48371.69;5081243;28;20529;-74
2023/02/19 04:02:02;;;;;;;23.50;3.63;;;;;;;-146.27;100.00;48359.75;5085511;28;20456;-72
2023/02/19 04:04:36;;;;;;;18.73;3.60;;;;;;;-146.27;100.00;48397.59;5093166;28;20551;-74
2023/02/19 04:07:02;;;;;;;19.20;2.85;;;;;;;-146.27;100.00;48331.88;5092297;28;20036;-73
2023/02/19 04:09:36;;;;;;;19.05;3.83;;;;;;;-146.27;100.00;48377.69;5092139;28;20032;-72
2023/02/19 04:12:03;;;;;;;16.25;2.42;;;;;;;-146.27;100.00;48373.69;5088196;28;20468;-72
2023/02/19 04:14:37;;;;;;;13.00;2.50;;;;;;;-146.27;100.00;48373.69;5087871;28;20043;-72
2023/02/19 04:17:05;;;;;;;;;;;;;;;-146.27;100.00;48345.81;5080999;28;20020;-73
2023/02/19 04:19:36;;;;;;;18.33;2.92;;;;;;;-146.27;100.00;48333.88;5083866;28;19916;-72
2023/02/19 04:22:05;;;;;;;12.85;2.25;;;;;;;-146.27;100.00;48387.63;5086297;28;20460;-71
2023/02/19 04:24:36;;;;;;;15.63;2.53;;;;;;;-146.27;100.00;48373.69;5086982;28;20027;-72
2023/02/19 04:27:03;;;;;;;14.50;2.67;;;;;;;-146.27;100.00;48379.66;5087173;28;20074;-72
2023/02/19 04:29:29;;;;;;;12.32;2.35;;;;;;;-146.27;100.00;48339.84;5088113;28;20019;-72
2023/02/19 04:31:54;;;;;;;17.75;3.20;;;;;;;-146.27;100.00;48353.78;5091674;28;20087;-71
2023/02/19 04:34:19;;;;;;;13.65;2.53;;;;;;;-146.27;100.00;48367.72;5088666;28;20374;-72
2023/02/19 04:36:45;;;;;;;20.85;2.88;;;;;;;-146.27;100.00;48355.78;5090132;28;20078;-73
2023/02/19 04:39:10;;;;;;;20.92;2.92;;;;;;;-146.27;100.00;48373.69;5084117;28;20089;-72
2023/02/19 04:41:35;;;;;;;21.80;3.33;;;;;;;-146.27;100.00;48323.91;5093070;28;20028;-72
2023/02/19 04:44:01;;;;;;;23.42;3.00;;;;;;;-146.27;100.00;48411.53;5088115;28;20134;-73
2023/02/19 04:46:26;;;;;;;16.77;3.28;;;;;;;-146.27;100.00;48393.63;5082890;28;20490;-72
2023/02/19 04:48:51;;;;;;;25.02;3.20;;;;;;;-146.27;100.00;48351.78;5090778;28;20024;-72
2023/02/19 04:51:17;;;;;;;18.75;2.95;;;;;;;-146.27;100.00;48377.69;5092398;28;20417;-71
2023/02/19 04:53:42;;;;;;;11.52;2.10;;;;;;;-146.27;100.00;48361.75;5090018;28;20020;-72
2023/02/19 04:56:10;;;;;;;17.77;2.78;;;;;;;-146.27;100.00;48355.78;5087069;28;21523;-72
2023/02/19 04:58:35;;;;;;;13.20;2.70;;;;;;;-146.27;100.00;48339.84;5089970;28;20085;-72
2023/02/19 05:01:01;;;;;;;10.00;2.35;;;;;;;-146.27;100.00;48379.66;5086653;28;20032;-71
2023/02/19 05:03:26;;;;;;;21.40;3.13;;;;;;;-146.27;100.00;48395.59;5082401;28;20022;-72
2023/02/19 05:05:52;;;;;;;17.33;3.15;;;;;;;-146.27;100.00;48347.81;5091421;28;20063;-71
2023/02/19 05:08:18;;;;;;;21.67;2.92;;;;;;;-146.27;100.00;48367.72;5089246;28;20031;-73
2023/02/19 05:10:43;;;;;;;13.27;2.65;;;;;;;-146.27;100.00;48375.69;5077630;28;20511;-72
2023/02/19 05:13:08;;;;;;;18.63;3.63;;;;;;;-146.27;100.00;48369.72;5087202;28;20051;-71
2023/02/19 05:15:34;;;;;;;19.45;3.13;;;;;;;-146.27;100.00;48353.78;5079362;28;20372;-69
2023/02/19 05:17:59;;;;;;;13.63;3.20;;;;;;;-146.27;100.00;48351.78;5091764;28;20103;-72
2023/02/19 05:20:24;;;;;;;14.45;3.08;;;;;;;-146.27;100.00;48337.84;5083840;28;20028;-72
2023/02/19 05:22:50;;;;;;;14.27;2.45;;;;;;;-146.27;100.00;48363.75;5088461;28;20024;-73
2023/02/19 05:25:15;;;;;;;18.38;2.83;;;;;;;-146.27;100.00;48351.78;5076345;28;20024;-72
2023/02/19 05:27:41;;;;;;;16.83;3.00;;;;;;;-146.27;100.00;48385.66;5079429;28;20016;-71
2023/02/19 05:30:06;;;;;;;11.63;2.67;;;;;;;-146.27;100.00;48393.63;5091067;28;20499;-72
2023/02/19 05:32:34;;;;;;;10.85;2.55;;;;;;;-146.27;100.00;48337.84;5090504;28;20123;-71
2023/02/19 05:34:59;;;;;;;15.35;3.33;;;;;;;-146.27;100.00;48349.78;5088137;28;20024;-72
2023/02/19 05:37:24;;;;;;;16.90;3.05;;;;;;;-146.27;100.00;48361.75;5091961;28;20031;-72
2023/02/19 05:39:50;;;;;;;13.35;2.80;;;;;;;-146.27;100.00;48351.78;5083999;28;20490;-72
2023/02/19 05:42:15;;;;;;;13.23;2.88;;;;;;;-146.27;100.00;48351.78;5088093;28;20093;-72
2023/02/19 05:44:41;;;;;;;12.23;2.80;;;;;;;-146.27;100.00;48363.75;5082944;28;20029;-71
2023/02/19 05:47:07;;;;;;;7.97;2.65;;;;;;;-146.27;100.00;48363.75;5086528;28;20032;-70
2023/02/19 05:49:32;;;;;;;19.42;3.03;;;;;;;-146.27;100.00;48391.63;5090611;28;20103;-71
2023/02/19 05:51:57;;;;;;;12.25;2.63;;;;;;;-146.27;100.00;48355.78;5090103;28;20142;-71
2023/02/19 05:54:23;;;;;;;10.00;3.03;;;;;;;-146.27;100.00;48335.84;5090956;28;20035;-71
2023/02/19 05:56:48;;;;;;;13.10;3.03;;;;;;;-146.27;100.00;48381.66;5090996;28;20023;-70
2023/02/19 05:59:22;;;;;;;13.68;3.03;;;;;;;-146.27;100.00;48365.72;5078334;28;20098;-72
2023/02/19 06:01:50;;;;;;;15.13;3.17;;;;;;;-146.27;100.00;48349.78;5079118;28;20044;-70
2023/02/19 06:04:16;;;;;;;20.27;3.10;;;;;;;-146.27;100.00;48395.59;5081762;28;20377;-71
2023/02/19 06:06:41;;;;;;;18.88;3.35;;;;;;;-146.27;100.00;48339.84;5086439;28;20054;-72
2023/02/19 06:09:08;;;;;;;10.27;2.88;;;;;;;-146.27;100.00;48367.72;5091600;28;20027;-73
2023/02/19 06:11:34;;;;;;;14.10;3.13;;;;;;;-146.27;100.00;48377.69;5076655;28;20032;-71
2023/02/19 06:13:59;;;;;;;22.10;4.15;;;;;;;-146.27;100.00;48369.72;5088540;28;20062;-71
2023/02/19 06:16:25;;;;;;;11.15;3.13;;;;;;;-146.27;100.00;48347.81;5092601;28;20049;-71
2023/02/19 06:18:50;;;;;;;8.98;2.80;;;;;;;-146.27;100.00;48391.63;5089565;28;20035;-71
2023/02/19 06:21:16;;;;;;;18.13;4.70;;;;;;;-146.27;100.00;48383.66;5083848;28;20059;-72
2023/02/19 06:23:42;;;;;;;11.82;3.03;;;;;;;-146.27;100.00;48343.81;5083785;28;20023;-71
2023/02/19 06:26:17;;;;;;;15.80;3.30;;;;;;;-146.27;100.00;48361.75;5091059;28;20040;-71
2023/02/19 06:28:44;;;;;;;16.15;3.35;;;;;;;-146.27;100.00;48367.72;5086084;28;20040;-71
2023/02/19 06:31:10;;;;;;;12.45;2.90;;;;;;;-146.27;100.00;48351.78;5086411;28;20464;-72
2023/02/19 06:33:39;;;;;;;21.55;4.00;;;;;;;-146.27;100.00;48367.72;5091094;28;20039;-71
2023/02/19 06:36:06;;;;;;;12.25;3.10;;;;;;;-146.27;100.00;48359.75;5088440;28;20044;-71
2023/02/19 06:38:32;;;;;;;13.63;3.60;;;;;;;-146.27;100.00;48355.78;5092909;28;20027;-73
2023/02/19 06:41:01;;;;;;;21.05;3.78;;;;;;;-146.27;100.00;48367.72;5083323;28;20072;-71
2023/02/19 06:43:27;;;;;;;15.23;3.30;;;;;;;-146.27;100.00;48343.81;5085767;28;20023;-71
2023/02/19 06:45:52;;;;;;;16.90;4.10;;;;;;;-146.27;100.00;48379.66;5087496;28;20119;-73
2023/02/19 06:48:17;;;;;;;9.43;3.10;;;;;;;-146.27;100.00;48357.75;5093937;28;20054;-72
2023/02/19 06:50:43;;;;;;;8.75;2.83;;;;;;;-146.27;100.00;48367.72;5094717;28;20030;-72
2023/02/19 06:53:10;;;;;;;16.42;3.22;;;;;;;-146.27;100.00;48349.78;5094321;28;20031;-70
2023/02/19 06:55:37;;;;;;;15.20;3.05;;;;;;;-146.27;100.00;48391.63;5096099;27;20063;-72
2023/02/19 06:58:02;;;;;;;10.90;3.55;;;;;;;-146.27;100.00;48355.78;5086696;28;20028;-71
2023/02/19 07:00:27;;;;;;;11.45;2.95;;;;;;;-146.27;100.00;48363.75;5079410;28;20505;-71
2023/02/19 07:02:55;;;;;;;11.50;3.10;;;;;;;-146.27;100.00;48379.66;5085932;28;20024;-72
2023/02/19 07:05:21;;;;;;;13.30;3.70;;;;;;;-146.27;100.00;48381.66;5088350;28;20510;-73
2023/02/19 07:07:46;;;;;;;15.38;3.95;;;;;;;-146.27;100.00;48347.81;5086475;28;20024;-72
2023/02/19 07:10:12;;;;;;;18.77;4.03;;;;;;;-146.27;100.00;48359.75;5096255;28;20444;-71
2023/02/19 07:12:37;;;;;;;14.23;3.30;;;;;;;-146.27;100.00;48387.63;5082112;28;20123;-71
2023/02/19 07:15:03;;;;;;;20.80;3.88;;;;;;;-146.27;100.00;48359.75;5092639;28;20422;-71
2023/02/19 07:17:28;;;;;;;16.73;3.42;;;;;;;-146.27;100.00;48363.75;5086380;28;20062;-70
2023/02/19 07:19:53;;;;;;;10.63;3.65;;;;;;;-146.27;100.00;48389.63;5083525;28;20043;-71
2023/02/19 07:22:18;;;;;;;17.45;3.95;;;;;;;-146.27;100.00;48389.63;5082645;28;20491;-71
2023/02/19 07:24:44;;;;;;;19.63;3.47;;;;;;;-146.27;100.00;48311.94;5089179;28;20030;-71
2023/02/19 07:27:09;;;;;;;19.20;4.13;;;;;;;-146.27;100.00;48383.66;5085729;28;20020;-72
2023/02/19 07:29:34;;;;;;;11.43;3.47;;;;;;;-146.27;100.00;48327.88;5087248;28;20267;-72
2023/02/19 07:32:00;;;;;;;13.13;4.22;;;;;;;-146.27;100.00;48361.75;5087040;28;20036;-71
2023/02/19 07:34:25;;;;;;;10.93;3.72;;;;;;;-146.27;100.00;48363.75;5090002;28;20032;-73
2023/02/19 07:36:51;;;;;;;18.55;4.43;;;;;;;-146.27;100.00;48399.59;5091671;28;20032;-72
2023/02/19 07:39:16;;;;;;;14.20;4.47;;;;;;;-146.27;100.00;48377.69;5094578;28;20042;-71
2023/02/19 07:41:41;;;;;;;17.92;4.40;;;;;;;-146.27;100.00;48367.72;5104943;28;20024;-73
2023/02/19 07:44:06;;;;;;;18.50;4.22;;;;;;;-146.27;100.00;48387.63;5089074;28;20036;-73
2023/02/19 07:46:32;;;;;;;13.88;4.32;;;;;;;-146.27;100.00;48371.69;5090197;28;20047;-72
2023/02/19 07:48:59;;;;;;;21.67;4.45;;;;;;;-146.27;100.00;48367.72;5089213;28;20437;-72
2023/02/19 07:51:24;;;;;;;16.98;4.05;;;;;;;-146.27;100.00;48381.66;5089661;28;20116;-73
2023/02/19 07:53:50;;;;;;;24.38;4.88;;;;;;;-146.27;100.00;48381.66;5089055;28;20546;-72
2023/02/19 07:56:16;;;;;;;16.98;4.13;;;;;;;-146.27;100.00;48377.69;5093849;28;20085;-72
2023/02/19 07:58:42;;;;;;;26.13;4.20;;;;;;;-146.27;100.00;48351.78;5092110;28;20028;-72
2023/02/19 08:01:07;;;;;;;15.68;3.95;;;;;;;-146.27;100.00;48385.66;5093222;28;20530;-75
2023/02/19 08:03:34;;;;;;;16.13;3.45;;;;;;;-146.27;100.00;48367.72;5088755;28;20107;-72
2023/02/19 08:05:59;;;;;;;22.30;3.60;;;;;;;-146.27;100.00;48367.72;5093821;28;20051;-72
2023/02/19 08:08:25;;;;;;;17.85;3.85;;;;;;;-146.27;100.00;48375.69;5088766;28;20024;-73
2023/02/19 08:13:34;;;;;;;14.13;3.53;;;;;;;-146.27;100.00;48359.75;5089421;28;20089;-72
2023/02/19 08:16:02;;;;;;;12.30;3.33;;;;;;;-146.27;100.00;48351.78;5085379;28;20024;-73
2023/02/19 08:18:31;;;;;;;22.98;4.45;;;;;;;-146.27;100.00;48371.69;5090808;28;20031;-72
2023/02/19 08:20:58;;;;;;;15.57;4.88;;;;;;;-146.27;100.00;48425.47;5089553;28;20438;-71
2023/02/19 08:23:25;;;;;;;19.38;5.00;;;;;;;-146.27;100.00;48367.72;5093819;28;20020;-73
2023/02/19 08:25:51;;;;;;;23.95;4.35;;;;;;;-146.27;100.00;48381.66;5094123;28;20074;-72
2023/02/19 08:28:18;;;;;;;12.25;4.88;;;;;;;-146.27;100.00;48391.63;5091400;28;20107;-73
2023/02/19 08:30:45;;;;;;;21.58;4.93;;;;;;;-146.27;100.00;48395.59;5087127;28;20040;-72
2023/02/19 08:33:13;;;;;;;27.92;5.47;;;;;;;-146.27;100.00;48351.78;5090816;28;20376;-73
2023/02/19 08:35:39;;;;;;;23.75;4.88;;;;;;;-146.27;100.00;48353.78;5092339;28;20024;-73
2023/02/19 08:38:06;;;;;;;27.20;5.07;;;;;;;-146.27;100.00;48393.63;5093627;28;20027;-71
2023/02/19 08:40:32;;;;;;;24.63;4.45;;;;;;;-146.27;100.00;48369.72;5093382;28;20031;-72
2023/02/19 08:43:03;;;;;;;21.15;4.32;;;;;;;-146.27;100.00;48383.66;5086159;28;20028;-71
2023/02/19 08:45:28;;;;;;;20.83;4.55;;;;;;;-146.27;100.00;48307.97;5084149;28;20030;-73
2023/02/19 08:47:54;;;;;;;18.10;3.72;;;;;;;-146.27;100.00;48351.78;5074789;28;20384;-73
2023/02/19 08:50:19;;;;;;;18.00;4.72;;;;;;;-146.27;100.00;48359.75;5085227;28;20032;-73
2023/02/19 08:52:44;;;;;;;24.98;4.43;;;;;;;-146.27;100.00;48345.81;5086070;28;20160;-73
2023/02/19 08:55:10;;;;;;;22.42;3.58;;;;;;;-146.27;100.00;48343.81;5086189;28;20051;-72
2023/02/19 08:57:36;;;;;;;26.52;4.32;;;;;;;-146.27;100.00;48391.63;5085572;28;20028;-72
2023/02/19 09:00:03;;;;;;;31.92;4.90;;;;;;;-146.27;100.00;48367.72;5088847;28;20177;-72
2023/02/19 09:02:30;;;;;;;13.57;3.22;;;;;;;-146.27;100.00;48367.72;5088056;28;20110;-72
2023/02/19 09:04:55;;;;;;;18.58;3.63;;;;;;;-146.27;100.00;48379.66;5090035;28;20074;-72
2023/02/19 09:07:21;;;;;;;28.25;3.92;;;;;;;-146.27;100.00;48399.59;5072554;28;20498;-74
2023/02/19 09:09:47;;;;;;;23.88;4.57;;;;;;;-146.27;100.00;48381.66;5085479;28;20119;-71
2023/02/19 09:12:12;;;;;;;21.77;3.78;;;;;;;-146.27;100.00;48373.69;5091346;28;20114;-73
2023/02/19 09:14:38;;;;;;;22.65;3.95;;;;;;;-146.27;100.00;48351.78;5084947;28;20433;-72
2023/02/19 09:17:05;;;;;;;21.48;4.07;;;;;;;-146.27;100.00;48333.88;5092447;28;20119;-73
2023/02/19 09:19:31;;;;;;;15.73;3.00;;;;;;;-146.27;100.00;48355.78;5082433;28;20610;-73
2023/02/19 09:21:57;;;;;;;21.80;2.80;;;;;;;-146.27;100.00;48387.63;5085909;28;20082;-72
2023/02/19 09:24:23;;;;;;;14.10;2.85;;;;;;;-146.27;100.00;48347.81;5081349;28;20032;-72
2023/02/19 09:26:50;;;;;;;13.40;2.28;;;;;;;-146.27;100.00;48377.69;5088649;28;20440;-72
2023/02/19 09:29:15;;;;;;;18.27;3.08;;;;;;;-146.27;100.00;48357.75;5082363;28;20114;-72
2023/02/19 09:31:41;;;;;;;16.48;3.25;;;;;;;-146.27;100.00;48383.66;5080845;28;20475;-74
2023/02/19 09:34:06;;;;;;;12.52;2.75;;;;;;;-146.27;100.00;48347.81;5079720;28;20440;-72
2023/02/19 09:36:32;;;;;;;16.38;2.20;;;;;;;-146.27;100.00;48375.69;5087026;28;20032;-72
2023/02/19 09:38:59;;;;;;;18.48;2.17;;;;;;;-146.27;100.00;48395.59;5092157;28;20268;-72
2023/02/19 09:41:27;;;;;;;20.25;2.45;;;;;;;-146.27;100.00;48359.75;5086614;28;20476;-71
2023/02/19 09:43:53;;;;;;;12.13;2.28;;;;;;;-146.27;100.00;48389.63;5087203;28;20039;-72
2023/02/19 09:46:45;;;;;;;11.02;1.90;;;;;;;-146.27;100.00;48345.81;5082330;28;20380;-72
2023/02/19 09:49:18;;;;;;;5.18;1.58;;;;;;;-146.27;100.00;48387.63;5083239;28;20460;-71
2023/02/19 09:52:14;;;;;;;5.57;1.50;;;;;;;-146.27;100.00;48335.84;5086826;28;20024;-71
2023/02/19 09:54:40;;;;;;;3.95;1.73;;;;;;;-146.27;100.00;48383.66;5082368;28;20028;-70
2023/02/19 09:57:14;;;;;;;4.20;1.55;;;;;;;-146.27;100.00;48379.66;5092672;28;20118;-72
2023/02/19 09:59:47;;;;;;;10.57;1.63;;;;;;;-146.27;100.00;48359.75;5085050;28;20402;-71
2023/02/19 10:02:15;;;;;;;6.13;1.50;;;;;;;-146.27;100.00;48387.63;5072990;28;20404;-72
2023/02/19 10:04:43;;;;;;;7.03;1.55;;;;;;;-146.27;100.00;48333.88;5085740;28;20038;-71
2023/02/19 10:07:14;;;;;;;4.18;1.17;;;;;;;-146.27;100.00;48363.75;5072199;28;20047;-72
2023/02/19 10:09:40;;;;;;;5.43;1.30;;;;;;;-146.27;100.00;48339.84;5084332;28;20028;-71
2023/02/19 10:12:14;;;;;;;7.60;1.40;;;;;;;-146.27;100.00;48343.81;5076393;28;20380;-71
2023/02/19 10:14:47;;;;;;;11.23;1.70;;;;;;;-146.27;100.00;48383.66;5084203;28;20020;-71
2023/02/19 10:17:29;;;;;;;11.05;1.65;;;;;;;-146.27;100.00;48411.53;5083400;28;20047;-72
2023/02/19 10:19:56;;;;;;;10.63;1.50;;;;;;;-146.27;100.00;48345.81;5083039;28;20371;-71
2023/02/19 10:22:23;;;;;;;6.38;1.70;;;;;;;-146.27;100.00;48355.78;5086958;28;20050;-72
2023/02/19 10:24:52;;;;;;;9.30;1.38;;;;;;;-146.27;100.00;48325.91;5084910;28;20035;-71
2023/02/19 10:27:18;;;;;;;10.43;2.20;;;;;;;-146.27;100.00;48403.56;5086470;28;20020;-71
2023/02/19 10:29:46;;;;;;;6.50;1.23;;;;;;;-146.27;100.00;48367.72;5087991;28;20036;-71
2023/02/19 10:32:23;;;;;;;14.88;1.85;;;;;;;-146.27;100.00;48351.78;5084502;28;20341;-71
2023/02/19 10:35:09;;;;;;;9.27;1.75;;;;;;;-146.27;100.00;48363.75;5087541;28;20094;-73
2023/02/19 10:37:40;;;;;;;8.43;1.58;;;;;;;-146.27;100.00;48399.59;5084570;28;20078;-72
2023/02/19 10:40:15;;;;;;;11.93;1.88;;;;;;;-146.27;100.00;48355.78;5071482;28;20511;-71
2023/02/19 10:42:45;;;;;;;9.43;2.40;;;;;;;-146.27;100.00;48389.63;5081609;28;20020;-71
2023/02/19 10:45:19;;;;;;;14.68;1.90;;;;;;;-146.27;100.00;48375.69;5086323;28;20489;-70
2023/02/19 10:47:48;;;;;;;14.48;2.65;;;;;;;-146.27;100.00;48385.66;5084020;28;20021;-72
2023/02/19 10:50:29;;;;;;;6.60;1.15;;;;;;;-146.27;100.00;48363.75;5088282;28;20036;-73
2023/02/19 10:52:56;;;;;;;9.10;1.60;;;;;;;-146.27;100.00;48367.72;5082358;28;20031;-71
2023/02/19 10:55:22;;;;;;;3.97;0.90;;;;;;;-146.27;100.00;48331.88;5082352;28;20020;-73
2023/02/19 10:57:49;;;;;;;8.05;1.20;;;;;;;-146.27;100.00;48397.59;5079062;28;20173;-72
2023/02/19 11:00:14;;;;;;;4.68;1.50;;;;;;;-146.27;100.00;48351.78;5080052;28;20457;-72
2023/02/19 11:02:41;;;;;;;4.60;0.90;;;;;;;-146.27;100.00;48375.69;5073927;28;20162;-71
2023/02/19 11:05:15;;;;;;;9.85;1.27;;;;;;;-146.27;100.00;48353.78;5090349;28;20226;-71
2023/02/19 11:07:47;;;;;;;11.07;1.33;;;;;;;-146.27;100.00;48355.78;5080691;28;20040;-73
2023/02/19 11:10:25;;;;;;;9.57;1.00;;;;;;;-146.27;100.00;48369.72;5084832;28;20476;-73
2023/02/19 11:12:53;;;;;;;9.23;1.20;;;;;;;-146.27;100.00;48373.69;5086224;28;20027;-71
2023/02/19 11:15:28;;;;;;;6.07;1.15;;;;;;;-146.27;100.00;48359.75;5069917;28;20033;-72
2023/02/19 11:18:04;;;;;;;4.63;1.20;;;;;;;-146.27;100.00;48331.88;5077851;28;20032;-72
2023/02/19 11:20:30;;;;;;;6.28;1.08;;;;;;;-146.27;100.00;48387.63;5076391;28;20031;-72
2023/02/19 11:23:00;;;;;;;4.80;1.10;;;;;;;-146.27;100.00;48347.81;5082612;28;20417;-71
2023/02/19 11:25:27;;;;;;;3.90;1.00;;;;;;;-146.27;100.00;48365.72;5078899;28;20051;-72
2023/02/19 11:28:05;;;;;;;8.32;1.60;;;;;;;-146.27;100.00;48397.59;5081798;28;20016;-71
2023/02/19 11:30:41;;;;;;;6.40;0.93;;;;;;;-146.27;100.00;48381.66;5079638;28;20429;-71
2023/02/19 11:33:16;;;;;;;11.93;1.35;;;;;;;-146.27;100.00;48355.78;5078354;28;20551;-74